Time;durP1;ratioP1;P1;durP2;ratioP2;P2;SDS_P1;SDS_P2;PMS_P1;PMS_P2;Temp;Humidity;BMP_temperature;BMP_pressure;BME280_temperature;BME280_humidity;BME280_pressure;Samples;Min_cycle;Max_cycle;Signal;HPM_P1;HPM_P2
2022/05/29 00:00:47;;;;;;;7.63;5.40;;;;;;;11.38;100.00;97706.47;5094449;28;20504;-76
2022/05/29 00:03:13;;;;;;;6.47;4.63;;;;;;;11.37;100.00;97704.03;5109951;28;20051;-76
2022/05/29 00:05:39;;;;;;;7.18;4.50;;;;;;;11.46;100.00;97707.69;5105857;27;20023;-75
2022/05/29 00:08:06;;;;;;;7.13;4.57;;;;;;;11.46;100.00;97708.50;5125873;27;20489;-76
2022/05/29 00:10:36;;;;;;;8.27;4.38;;;;;;;11.48;100.00;97706.25;5130074;27;20027;-77
2022/05/29 00:13:02;;;;;;;7.32;4.00;;;;;;;11.41;100.00;97700.38;5130139;27;20027;-76
2022/05/29 00:15:27;;;;;;;6.35;4.35;;;;;;;11.48;100.00;97706.25;5128731;27;20034;-76
2022/05/29 00:17:53;;;;;;;8.02;4.30;;;;;;;11.47;100.00;97698.31;5109616;28;20035;-77
2022/05/29 00:20:18;;;;;;;8.98;4.50;;;;;;;11.41;100.00;97685.84;5117509;27;20027;-77
2022/05/29 00:22:43;;;;;;;7.85;4.60;;;;;;;11.48;100.00;97695.28;5119812;27;20020;-77
2022/05/29 00:25:11;;;;;;;7.13;4.47;;;;;;;11.54;100.00;97698.72;5114968;27;20070;-77
2022/05/29 00:27:36;;;;;;;7.43;5.00;;;;;;;11.49;100.00;97696.09;5109220;28;20039;-75
2022/05/29 00:30:05;;;;;;;8.18;4.30;;;;;;;11.47;100.00;97695.59;5108957;27;20041;-76
2022/05/29 00:32:31;;;;;;;6.00;4.32;;;;;;;11.44;100.00;97683.31;5103398;27;20657;-76
2022/05/29 00:34:56;;;;;;;7.32;4.82;;;;;;;11.47;100.00;97682.69;5109476;28;20027;-77
2022/05/29 00:37:22;;;;;;;7.28;4.47;;;;;;;11.45;100.00;97679.47;5121020;27;20019;-76
2022/05/29 00:39:49;;;;;;;6.93;4.35;;;;;;;11.45;100.00;97671.25;5124422;27;20019;-77
2022/05/29 00:42:18;;;;;;;9.32;4.03;;;;;;;11.46;100.00;97672.88;5117151;28;20384;-78
2022/05/29 00:44:43;;;;;;;5.40;3.90;;;;;;;11.42;100.00;97660.09;5129592;27;20019;-75
2022/05/29 00:47:09;;;;;;;5.68;4.20;;;;;;;11.49;100.00;97661.31;5104929;27;20027;-76
2022/05/29 00:49:36;;;;;;;6.30;4.22;;;;;;;11.48;100.00;97662.41;5122333;27;20475;-75
2022/05/29 00:52:05;;;;;;;5.70;4.20;;;;;;;11.41;100.00;97658.47;5117141;27;20096;-74
2022/05/29 00:54:37;;;;;;;6.35;4.40;;;;;;;11.42;100.00;97649.97;5128595;27;20031;-74
2022/05/29 00:57:03;;;;;;;5.95;4.47;;;;;;;11.47;100.00;97649.84;5127594;27;20441;-76
2022/05/29 00:59:33;;;;;;;5.15;3.90;;;;;;;11.47;100.00;97649.03;5109398;28;20062;-76
2022/05/29 01:02:01;;;;;;;5.65;4.13;;;;;;;11.47;100.00;97647.09;5095587;27;20031;-75
2022/05/29 01:04:26;;;;;;;6.18;4.13;;;;;;;11.49;100.00;97636.66;5110930;27;20027;-76
2022/05/29 01:06:53;;;;;;;7.35;5.18;;;;;;;11.55;100.00;97634.59;5108839;28;20537;-76
2022/05/29 01:09:18;;;;;;;6.85;4.75;;;;;;;11.40;100.00;97630.31;5129129;27;20080;-75
2022/05/29 01:12:00;;;;;;;6.38;4.65;;;;;;;11.44;100.00;97625.00;5129512;27;20027;-75
2022/05/29 01:14:38;;;;;;;7.03;4.50;;;;;;;11.52;100.00;97619.59;5115607;27;20053;-74
2022/05/29 01:17:03;;;;;;;10.15;4.60;;;;;;;11.59;100.00;97616.44;5129176;27;20111;-76
2022/05/29 01:19:47;;;;;;;11.18;5.40;;;;;;;11.58;100.00;97615.63;5129125;27;20114;-74
2022/05/29 01:22:27;;;;;;;7.32;5.40;;;;;;;11.64;100.00;97603.44;5110503;27;20480;-75
2022/05/29 01:25:30;;;;;;;7.38;4.90;;;;;;;11.70;100.00;97595.91;5127244;27;20129;-75
2022/05/29 01:28:33;;;;;;;6.43;4.30;;;;;;;11.59;100.00;97595.31;5089447;28;20492;-75
2022/05/29 01:31:12;;;;;;;7.78;4.57;;;;;;;11.62;100.00;97591.94;5120816;27;20033;-76
2022/05/29 01:33:52;;;;;;;5.40;4.10;;;;;;;11.62;100.00;97591.94;5111074;28;20123;-76
2022/05/29 01:36:21;;;;;;;4.78;3.80;;;;;;;11.53;100.00;97587.53;5124945;28;20023;-74
2022/05/29 01:39:07;;;;;;;6.03;4.03;;;;;;;11.60;100.00;97579.69;5105089;28;20130;-75
2022/05/29 01:41:53;;;;;;;7.63;4.20;;;;;;;11.58;100.00;97590.16;5119024;28;20173;-76
2022/05/29 01:44:29;;;;;;;4.93;3.85;;;;;;;11.52;100.00;97583.19;5100475;28;20043;-76
2022/05/29 01:47:09;;;;;;;8.57;4.10;;;;;;;11.51;100.00;97579.63;5105864;28;20040;-75
2022/05/29 01:49:40;;;;;;;5.07;4.10;;;;;;;11.45;100.00;97569.09;5108324;28;20062;-76
2022/05/29 01:52:16;;;;;;;7.82;4.40;;;;;;;11.47;100.00;97564.94;5110480;28;20621;-76
2022/05/29 01:54:50;;;;;;;6.63;3.90;;;;;;;11.44;100.00;97568.28;5108716;28;20032;-74
2022/05/29 01:57:20;;;;;;;6.93;3.95;;;;;;;11.47;100.00;97564.94;5109427;28;20035;-75
2022/05/29 02:00:06;;;;;;;5.80;4.03;;;;;;;11.52;100.00;97548.41;5109363;28;20035;-75
2022/05/29 02:02:38;;;;;;;14.90;5.10;;;;;;;11.49;100.00;97554.50;5128613;28;20403;-75
2022/05/29 02:05:10;;;;;;;7.25;4.18;;;;;;;11.44;100.00;97551.03;5111312;28;20067;-75
2022/05/29 02:07:50;;;;;;;7.78;4.05;;;;;;;11.41;100.00;97544.28;5117668;28;20042;-76
2022/05/29 02:10:33;;;;;;;10.73;4.18;;;;;;;11.41;100.00;97552.47;5112207;28;20144;-74
2022/05/29 02:13:21;;;;;;;8.10;4.40;;;;;;;11.45;100.00;97548.00;5126436;28;20059;-76
2022/05/29 02:15:52;;;;;;;6.93;4.32;;;;;;;11.38;100.00;97547.63;5126560;28;20052;-76
2022/05/29 02:18:29;;;;;;;7.53;4.32;;;;;;;11.34;100.00;97543.88;5108553;28;20028;-75
2022/05/29 02:21:01;;;;;;;6.13;4.05;;;;;;;11.40;100.00;97539.13;5109993;28;20076;-75
2022/05/29 02:23:35;;;;;;;6.38;4.07;;;;;;;11.40;100.00;97539.94;5118068;28;20418;-75
2022/05/29 02:26:04;;;;;;;4.93;4.07;;;;;;;11.49;100.00;97537.25;5125889;28;20023;-75
2022/05/29 02:28:36;;;;;;;7.53;4.25;;;;;;;11.46;100.00;97533.22;5122337;28;20024;-76
2022/05/29 02:31:17;;;;;;;8.68;5.07;;;;;;;11.45;100.00;97539.78;5119516;28;20043;-76
2022/05/29 02:34:18;;;;;;;6.57;4.35;;;;;;;11.45;100.00;97526.09;5110672;28;20024;-76
2022/05/29 02:36:57;;;;;;;7.60;4.68;;;;;;;11.43;100.00;97527.53;5114906;28;20564;-74
2022/05/29 02:39:38;;;;;;;6.13;4.50;;;;;;;11.39;100.00;97532.00;5121145;27;20027;-74
2022/05/29 02:42:13;;;;;;;5.95;4.68;;;;;;;11.36;100.00;97533.44;5123977;27;20030;-74
2022/05/29 02:45:03;;;;;;;7.72;4.95;;;;;;;11.32;100.00;97526.97;5131187;27;20427;-75
2022/05/29 02:47:48;;;;;;;8.10;5.18;;;;;;;11.35;100.00;97526.34;5098669;27;20038;-74
2022/05/29 02:50:25;;;;;;;7.20;4.80;;;;;;;11.34;100.00;97524.72;5113761;27;20084;-75
2022/05/29 02:52:56;;;;;;;7.80;4.75;;;;;;;11.35;100.00;97525.53;5115296;28;20032;-75
2022/05/29 02:55:24;;;;;;;9.13;4.50;;;;;;;11.39;100.00;97521.06;5125999;27;20035;-75
2022/05/29 02:57:58;;;;;;;5.50;4.35;;;;;;;11.39;100.00;97521.88;5097589;28;20110;-74
2022/05/29 03:00:27;;;;;;;7.22;4.85;;;;;;;11.37;100.00;97521.34;5126371;27;20123;-75
2022/05/29 03:03:11;;;;;;;6.80;4.43;;;;;;;11.49;100.00;97523.56;5121885;27;20476;-75
2022/05/29 03:05:55;;;;;;;6.13;4.13;;;;;;;11.46;100.00;97521.44;5131210;27;20034;-75
2022/05/29 03:08:41;;;;;;;10.07;4.55;;;;;;;11.45;100.00;97522.56;5124217;27;20044;-75
2022/05/29 03:11:14;;;;;;;5.85;3.90;;;;;;;11.40;100.00;97523.50;5121166;27;20694;-74
2022/05/29 03:13:51;;;;;;;6.32;4.32;;;;;;;11.43;100.00;97520.13;5122891;27;20046;-75
2022/05/29 03:16:26;;;;;;;5.00;3.80;;;;;;;11.38;100.00;97519.44;5123817;27;20030;-74
2022/05/29 03:19:35;;;;;;;8.93;4.05;;;;;;;11.34;100.00;97521.97;5120926;27;20055;-73
2022/05/29 03:22:20;;;;;;;6.47;4.25;;;;;;;11.36;100.00;97519.75;5028307;28;20033;-74
2022/05/29 03:24:51;;;;;;;8.52;4.72;;;;;;;11.31;100.00;97521.81;5124080;27;20061;-75
2022/05/29 03:27:29;;;;;;;6.00;4.45;;;;;;;11.22;100.00;97519.00;5124110;27;20499;-74
2022/05/29 03:30:08;;;;;;;8.05;4.15;;;;;;;11.19;100.00;97514.94;5127729;27;20046;-75
2022/05/29 03:32:36;;;;;;;5.82;4.30;;;;;;;11.25;100.00;97512.88;5111866;27;20038;-75
2022/05/29 03:35:32;;;;;;;6.60;3.70;;;;;;;11.19;100.00;97500.44;5132467;27;20027;-75
2022/05/29 03:37:59;;;;;;;7.05;4.00;;;;;;;11.18;100.00;97499.63;5094030;28;20092;-74
2022/05/29 03:40:27;;;;;;;4.57;3.70;;;;;;;11.26;100.00;97509.03;5112481;27;20536;-75
2022/05/29 03:42:53;;;;;;;5.20;4.20;;;;;;;11.31;100.00;97502.66;5134532;27;20027;-74
2022/05/29 03:45:19;;;;;;;5.05;4.10;;;;;;;11.31;100.00;97492.47;5129800;27;20023;-75
2022/05/29 03:47:44;;;;;;;5.85;3.60;;;;;;;11.27;100.00;97496.97;5123686;27;20361;-75
2022/05/29 03:50:13;;;;;;;5.57;3.83;;;;;;;11.26;100.00;97489.88;5114527;27;20040;-75
2022/05/29 03:52:39;;;;;;;8.05;4.13;;;;;;;11.36;100.00;97497.03;5109339;27;20031;-75
2022/05/29 03:55:05;;;;;;;6.88;3.90;;;;;;;11.39;100.00;97488.19;5119824;27;20511;-75
2022/05/29 03:57:31;;;;;;;5.65;4.05;;;;;;;11.43;100.00;97490.00;5128988;27;20034;-74
2022/05/29 03:59:57;;;;;;;5.75;3.92;;;;;;;11.42;100.00;97476.63;5115165;27;20031;-75
2022/05/29 04:02:23;;;;;;;5.70;3.67;;;;;;;11.40;100.00;97474.22;5109851;28;20024;-74
2022/05/29 04:04:48;;;;;;;6.20;4.32;;;;;;;11.41;100.00;97485.94;5127723;27;20395;-75
2022/05/29 04:07:14;;;;;;;5.68;4.10;;;;;;;11.38;100.00;97490.13;5074568;28;20039;-74
2022/05/29 04:12:23;;;;;;;5.53;3.67;;;;;;;11.44;100.00;97488.88;5122933;27;20034;-75
2022/05/29 04:14:48;;;;;;;5.47;3.78;;;;;;;11.48;100.00;97489.06;5130162;27;20027;-75
2022/05/29 04:17:16;;;;;;;6.82;3.83;;;;;;;11.55;100.00;97481.22;5123682;27;20446;-75
2022/05/29 04:19:44;;;;;;;5.40;3.80;;;;;;;11.66;100.00;97477.09;5130043;27;20468;-75
2022/05/29 04:22:14;;;;;;;5.65;4.38;;;;;;;11.72;100.00;97473.13;5123176;27;20031;-75
2022/05/29 04:24:40;;;;;;;5.80;3.70;;;;;;;11.70;100.00;97465.22;5115791;27;20498;-74
2022/05/29 04:27:09;;;;;;;6.47;3.08;;;;;;;11.81;100.00;97455.59;5110928;27;20019;-75
2022/05/29 04:29:35;;;;;;;7.30;3.30;;;;;;;11.85;100.00;97461.25;5125836;27;20080;-76
2022/05/29 04:34:44;;;;;;;6.07;2.78;;;;;;;12.05;100.00;97468.13;5112815;27;20501;-77
2022/05/29 04:37:10;;;;;;;3.97;2.80;;;;;;;12.07;100.00;97468.59;5108454;27;20106;-76
2022/05/29 04:39:36;;;;;;;4.22;2.88;;;;;;;12.10;100.00;97471.53;5112860;27;20080;-75
2022/05/29 04:42:03;;;;;;;3.63;2.80;;;;;;;12.17;100.00;97473.81;5109569;27;20034;-76
2022/05/29 04:44:30;;;;;;;5.32;2.85;;;;;;;12.14;100.00;97479.94;5103163;28;20116;-81
2022/05/29 04:46:57;;;;;;;7.20;2.88;;;;;;;12.06;100.00;97476.00;5109849;28;20027;-77
2022/05/29 04:49:23;;;;;;;6.40;2.63;;;;;;;11.98;100.00;97481.47;5125588;27;20028;-78
2022/05/29 04:51:48;;;;;;;3.80;2.88;;;;;;;11.99;100.00;97483.09;5120385;27;20426;-75
2022/05/29 04:54:14;;;;;;;7.53;2.50;;;;;;;11.98;100.00;97481.47;5126125;27;20035;-75
2022/05/29 04:56:39;;;;;;;3.70;2.40;;;;;;;12.01;100.00;97473.44;5112655;27;20023;-78
2022/05/29 04:59:05;;;;;;;5.30;3.05;;;;;;;12.02;100.00;97471.50;5121482;27;20027;-77
2022/05/29 05:01:30;;;;;;;4.00;2.35;;;;;;;12.05;100.00;97462.63;5111691;27;20475;-77
2022/05/29 05:03:55;;;;;;;5.45;2.58;;;;;;;12.15;100.00;97459.63;5103462;27;20034;-77
2022/05/29 05:06:21;;;;;;;3.55;2.28;;;;;;;12.25;100.00;97465.59;5105612;27;20110;-75
2022/05/29 05:08:46;;;;;;;7.40;2.22;;;;;;;12.29;100.00;97457.53;5102819;27;20048;-76
2022/05/29 05:11:12;;;;;;;5.00;2.50;;;;;;;12.39;100.00;97456.44;5121032;27;20053;-77
2022/05/29 05:13:37;;;;;;;5.57;2.80;;;;;;;12.39;100.00;97459.19;5110513;27;20399;-79
2022/05/29 05:16:04;;;;;;;4.38;2.65;;;;;;;12.36;100.00;97452.41;5111402;27;20482;-79
2022/05/29 05:18:30;;;;;;;6.05;2.45;;;;;;;12.47;100.00;97441.97;5113541;27;20027;-75
2022/05/29 05:20:56;;;;;;;5.68;2.53;;;;;;;12.34;100.00;97435.47;5113781;27;20377;-76
2022/05/29 05:23:21;;;;;;;5.15;2.65;;;;;;;12.43;100.00;97441.78;5110500;28;20032;-80
2022/05/29 05:25:47;;;;;;;3.38;2.42;;;;;;;12.41;100.00;97441.28;5127257;27;20475;-80
2022/05/29 05:28:12;;;;;;;5.07;2.40;;;;;;;12.30;100.00;97450.94;5118021;27;20499;-77
2022/05/29 05:30:38;;;;;;;3.38;2.17;;;;;;;12.26;100.00;97449.97;5110349;28;20057;-78
2022/05/29 05:33:03;;;;;;;2.92;2.20;;;;;;;12.41;100.00;97444.03;5128770;27;20034;-78
2022/05/29 05:35:28;;;;;;;3.33;2.45;;;;;;;12.32;100.00;97451.44;5124084;27;20027;-77
2022/05/29 05:37:54;;;;;;;5.93;2.42;;;;;;;12.38;100.00;97444.66;5126258;27;20015;-76
2022/05/29 05:40:19;;;;;;;4.30;2.10;;;;;;;12.44;100.00;97434.34;5113257;28;20019;-77
2022/05/29 05:42:45;;;;;;;4.18;2.58;;;;;;;12.43;100.00;97435.50;5125659;28;20027;-78
2022/05/29 05:45:12;;;;;;;4.22;2.25;;;;;;;12.43;100.00;97432.75;5120079;28;20035;-79
2022/05/29 05:47:38;;;;;;;5.45;2.28;;;;;;;12.12;100.00;97430.88;5118087;28;20027;-76
2022/05/29 05:50:05;;;;;;;4.22;2.10;;;;;;;11.97;100.00;97423.09;5120593;28;20051;-76
2022/05/29 05:52:30;;;;;;;5.45;2.15;;;;;;;11.90;100.00;97427.44;5121376;28;20046;-75
2022/05/29 05:54:56;;;;;;;5.80;2.30;;;;;;;11.80;100.00;97426.59;5109552;28;20023;-77
2022/05/29 05:57:21;;;;;;;4.78;2.33;;;;;;;11.76;100.00;97424.78;5122666;28;20023;-77
2022/05/29 05:59:47;;;;;;;4.57;2.25;;;;;;;11.75;100.00;97429.47;5107806;28;20487;-76
2022/05/29 06:02:13;;;;;;;4.38;2.60;;;;;;;11.65;100.00;97432.44;5114535;28;20119;-76
2022/05/29 06:04:40;;;;;;;3.22;2.17;;;;;;;11.62;100.00;97433.06;5120120;28;20024;-82
2022/05/29 06:07:07;;;;;;;3.88;2.33;;;;;;;11.67;100.00;97430.22;5116966;28;20028;-79
2022/05/29 06:09:33;;;;;;;2.80;2.00;;;;;;;11.59;100.00;97425.47;5115485;28;20038;-80
2022/05/29 06:11:59;;;;;;;6.38;2.50;;;;;;;11.59;100.00;97428.22;5112974;28;20038;-79
2022/05/29 06:14:24;;;;;;;3.88;2.22;;;;;;;11.46;100.00;97407.22;5123342;28;20028;-81
2022/05/29 06:16:50;;;;;;;2.97;2.15;;;;;;;11.56;100.00;97415.16;5117300;27;20019;-76
2022/05/29 06:19:16;;;;;;;5.20;2.50;;;;;;;11.60;100.00;97405.19;5125128;27;20126;-75
2022/05/29 06:21:41;;;;;;;5.85;2.35;;;;;;;11.61;100.00;97401.34;5125128;27;20020;-76
2022/05/29 06:24:07;;;;;;;5.70;2.92;;;;;;;11.64;100.00;97408.91;5111399;27;20391;-76
2022/05/29 06:26:32;;;;;;;5.95;2.28;;;;;;;11.65;100.00;97398.78;5132841;27;20034;-77
2022/05/29 06:28:58;;;;;;;3.92;2.40;;;;;;;11.69;100.00;97397.81;5113329;27;20081;-75
2022/05/29 06:31:23;;;;;;;3.95;2.30;;;;;;;11.66;100.00;97397.63;5119236;27;20536;-76
2022/05/29 06:33:49;;;;;;;9.70;2.40;;;;;;;11.67;100.00;97394.59;5113407;27;20357;-75
2022/05/29 06:36:23;;;;;;;7.20;4.00;;;;;;;11.81;100.00;97386.28;5111424;28;20503;-76
2022/05/29 06:38:49;;;;;;;19.65;9.07;;;;;;;11.90;100.00;97384.41;5116976;27;20024;-76
2022/05/29 06:41:16;;;;;;;14.48;6.97;;;;;;;11.98;100.00;97391.00;5120020;27;20043;-74
2022/05/29 06:43:42;;;;;;;6.25;3.80;;;;;;;11.90;100.00;97386.31;5132071;27;20058;-76
2022/05/29 06:46:09;;;;;;;4.72;2.72;;;;;;;11.85;100.00;97380.97;5123279;27;20051;-75
2022/05/29 06:48:35;;;;;;;8.23;4.10;;;;;;;12.01;100.00;97380.22;5116328;27;20106;-75
2022/05/29 06:51:14;;;;;;;6.55;2.60;;;;;;;11.89;100.00;97381.97;5113514;27;21309;-75
2022/05/29 06:53:40;;;;;;;4.60;2.13;;;;;;;12.06;100.00;97377.31;5111123;27;20110;-75
2022/05/29 06:56:07;;;;;;;4.78;3.10;;;;;;;11.99;100.00;97377.00;5132000;27;20608;-74
2022/05/29 06:58:33;;;;;;;4.00;1.85;;;;;;;11.64;100.00;97367.84;5130115;27;20505;-76
2022/05/29 07:09:18;;;;;;;6.82;2.55;;;;;;;11.69;100.00;97366.88;5077174;28;20047;-74
2022/05/29 07:11:47;;;;;;;5.93;2.45;;;;;;;11.60;100.00;97361.34;5087029;28;20024;-79
2022/05/29 07:14:14;;;;;;;3.13;2.20;;;;;;;11.58;100.00;97360.88;5082303;28;20108;-78
2022/05/29 07:16:40;;;;;;;4.07;2.40;;;;;;;11.34;100.00;97354.94;5077210;28;20078;-78
2022/05/29 07:19:05;;;;;;;3.90;2.58;;;;;;;11.44;100.00;97360.16;5078205;28;20029;-75
2022/05/29 07:21:36;;;;;;;3.35;2.25;;;;;;;11.44;100.00;97360.16;5074349;28;20032;-77
2022/05/29 07:24:01;;;;;;;3.28;2.35;;;;;;;11.35;100.00;97367.53;5088818;28;20020;-76
2022/05/29 07:26:26;;;;;;;8.95;2.38;;;;;;;11.48;100.00;97372.09;5088349;28;20046;-77
2022/05/29 07:28:52;;;;;;;3.53;2.30;;;;;;;11.54;100.00;97362.63;5073319;28;20024;-75
2022/05/29 07:31:19;;;;;;;3.70;2.13;;;;;;;11.62;100.00;97372.78;5074676;28;20016;-75
2022/05/29 07:33:44;;;;;;;4.85;2.65;;;;;;;11.71;100.00;97373.69;5071468;28;20508;-76
2022/05/29 07:36:12;;;;;;;5.80;2.70;;;;;;;11.78;100.00;97365.81;5070593;28;20052;-75
2022/05/29 07:38:39;;;;;;;3.75;2.22;;;;;;;11.88;100.00;97381.16;5070261;28;20028;-76
2022/05/29 07:43:18;;;;;;;3.90;2.28;;;;;;;11.93;100.00;97372.00;5084831;28;20024;-75
2022/05/29 07:43:54;;;;;;;4.55;2.42;;;;;;;12.02;100.00;97370.88;5070074;28;20028;-75
2022/05/29 07:46:20;;;;;;;3.65;2.40;;;;;;;12.04;100.00;97381.50;5071254;28;20053;-75
2022/05/29 07:48:46;;;;;;;3.55;2.53;;;;;;;12.03;100.00;97379.91;5069973;28;20103;-75
2022/05/29 07:51:13;;;;;;;4.25;2.60;;;;;;;11.80;100.00;97379.19;5074639;28;20025;-77
2022/05/29 07:53:38;;;;;;;6.18;2.45;;;;;;;11.68;100.00;97390.72;5087378;28;20023;-74
2022/05/29 07:56:05;;;;;;;5.50;2.65;;;;;;;11.53;100.00;97387.56;5073348;28;20028;-75
2022/05/29 07:58:30;;;;;;;6.00;3.03;;;;;;;11.82;100.00;97383.22;5075638;28;20028;-75
2022/05/29 08:01:42;;;;;;;8.65;3.35;;;;;;;11.51;100.00;97376.97;5075161;28;20082;-76
2022/05/29 08:04:01;;;;;;;6.72;2.60;;;;;;;11.30;100.00;97367.69;5077868;28;20051;-75
2022/05/29 08:06:28;;;;;;;5.07;2.75;;;;;;;11.46;100.00;97373.56;5078870;28;20027;-75
2022/05/29 08:08:54;;;;;;;3.75;2.42;;;;;;;11.41;100.00;97371.75;5098508;28;20044;-77
2022/05/29 08:11:19;;;;;;;4.18;3.08;;;;;;;11.22;100.00;97368.41;5103413;28;20392;-75
2022/05/29 08:13:47;;;;;;;5.53;2.85;;;;;;;11.62;100.00;97375.53;5098389;28;20016;-76
2022/05/29 08:16:16;;;;;;;3.85;2.95;;;;;;;11.71;100.00;97370.97;5102324;28;20024;-75
2022/05/29 08:18:44;;;;;;;3.78;2.95;;;;;;;11.85;100.00;97364.53;5096441;28;20582;-73
2022/05/29 08:21:10;;;;;;;11.10;2.90;;;;;;;11.88;100.00;97380.34;5095497;28;20040;-75
2022/05/29 08:23:35;;;;;;;5.00;2.72;;;;;;;11.97;100.00;97373.75;5101132;28;20028;-77
2022/05/29 08:31:29;;;;;;;4.22;2.78;;;;;;;11.98;100.00;97366.34;5099215;28;20089;-76
2022/05/29 08:33:54;;;;;;;5.18;2.90;;;;;;;11.89;100.00;97371.00;5094236;28;20023;-76
2022/05/29 08:36:24;;;;;;;6.75;3.00;;;;;;;11.97;100.00;97356.50;5101156;28;20027;-77
2022/05/29 08:38:52;;;;;;;4.50;2.42;;;;;;;11.88;100.00;97359.22;5109082;28;20024;-77
2022/05/29 08:41:33;;;;;;;3.08;2.10;;;;;;;11.96;100.00;97374.09;5104461;28;20038;-76
2022/05/29 08:44:12;;;;;;;6.70;2.42;;;;;;;11.90;100.00;97369.88;5093988;28;20031;-76
2022/05/29 08:46:43;;;;;;;8.57;2.83;;;;;;;11.79;100.00;97367.44;5096506;28;20416;-76
2022/05/29 08:49:14;;;;;;;3.65;2.30;;;;;;;11.73;100.00;97349.53;5094383;28;20035;-76
2022/05/29 08:51:46;;;;;;;3.25;1.98;;;;;;;11.62;100.00;97364.59;5085923;28;20024;-75
2022/05/29 08:54:35;;;;;;;5.22;2.50;;;;;;;11.73;100.00;97360.47;5103816;28;20031;-77
2022/05/29 08:57:03;;;;;;;3.38;2.22;;;;;;;11.75;100.00;97360.97;5090168;28;20727;-76
2022/05/29 08:59:49;;;;;;;3.45;2.13;;;;;;;11.67;100.00;97369.94;5096064;28;20072;-76
2022/05/29 09:02:33;;;;;;;3.03;1.83;;;;;;;11.62;100.00;97375.53;5087730;28;20024;-77
2022/05/29 09:05:06;;;;;;;3.47;2.22;;;;;;;11.57;100.00;97375.69;5088131;28;20073;-75
2022/05/29 09:07:33;;;;;;;6.35;2.20;;;;;;;11.56;100.00;97362.31;5102313;27;20184;-76
2022/05/29 09:10:12;;;;;;;3.65;2.20;;;;;;;11.64;100.00;97358.81;5112819;27;20050;-76
2022/05/29 09:12:47;;;;;;;8.38;2.40;;;;;;;11.65;100.00;97361.22;5109115;27;20039;-76
2022/05/29 09:15:38;;;;;;;3.83;2.20;;;;;;;11.60;100.00;97352.31;5089741;27;20050;-77
2022/05/29 09:18:14;;;;;;;4.03;2.50;;;;;;;11.70;100.00;97343.88;5101423;28;20403;-75
2022/05/29 09:21:02;;;;;;;7.03;2.53;;;;;;;11.79;100.00;97339.22;5114253;27;20057;-76
2022/05/29 09:23:34;;;;;;;5.45;2.63;;;;;;;11.83;100.00;97340.19;5117019;27;20085;-76
2022/05/29 09:26:04;;;;;;;3.25;2.25;;;;;;;11.93;100.00;97339.09;5120807;27;20019;-75
2022/05/29 09:28:34;;;;;;;3.80;2.10;;;;;;;12.01;100.00;97354.75;5114823;27;20016;-75
2022/05/29 09:31:14;;;;;;;3.92;2.03;;;;;;;11.66;100.00;97357.34;5119377;27;20042;-75
2022/05/29 09:33:40;;;;;;;6.00;3.25;;;;;;;11.92;100.00;97353.91;5114201;27;20029;-74
2022/05/29 09:36:11;;;;;;;10.30;2.50;;;;;;;11.94;100.00;97341.50;5128028;27;20035;-75
2022/05/29 09:38:56;;;;;;;5.10;2.50;;;;;;;12.15;100.00;97333.50;5124402;27;20107;-75
2022/05/29 09:41:28;;;;;;;6.05;2.65;;;;;;;11.93;100.00;97344.59;5118081;27;20043;-76
2022/05/29 09:44:16;;;;;;;3.63;2.20;;;;;;;11.82;100.00;97339.38;5116755;28;20502;-76
2022/05/29 09:46:43;;;;;;;4.88;2.10;;;;;;;11.67;100.00;97336.25;5096088;28;20039;-76
2022/05/29 09:49:41;;;;;;;3.53;2.22;;;;;;;11.66;100.00;97349.13;5128546;27;20023;-76
2022/05/29 09:52:19;;;;;;;6.10;3.13;;;;;;;11.66;100.00;97335.44;5104631;27;20042;-76
2022/05/29 09:54:50;;;;;;;3.15;1.92;;;;;;;11.62;100.00;97348.16;5121840;27;20035;-76
2022/05/29 09:57:23;;;;;;;5.05;1.90;;;;;;;11.48;100.00;97347.47;5118338;27;20028;-75
2022/05/29 09:59:56;;;;;;;4.32;2.28;;;;;;;11.65;100.00;97342.03;5102753;27;20046;-76
2022/05/29 10:02:51;;;;;;;3.55;2.42;;;;;;;11.74;100.00;97333.91;5107099;27;20023;-76
2022/05/29 10:05:31;;;;;;;4.55;2.38;;;;;;;11.74;100.00;97340.19;5086319;27;20130;-77
2022/05/29 10:08:35;;;;;;;4.30;2.55;;;;;;;11.62;100.00;97350.09;5113639;27;20035;-77
2022/05/29 10:11:28;;;;;;;3.65;2.13;;;;;;;11.67;100.00;97348.03;5098784;27;20039;-77
2022/05/29 10:13:54;;;;;;;5.85;2.08;;;;;;;11.66;100.00;97340.09;5113600;27;20117;-76
2022/05/29 10:16:39;;;;;;;3.95;2.17;;;;;;;11.57;100.00;97342.00;5116123;27;20589;-75
2022/05/29 10:19:10;;;;;;;3.42;2.17;;;;;;;11.39;100.00;97335.66;5120955;27;20070;-77
2022/05/29 10:21:48;;;;;;;6.28;2.58;;;;;;;11.46;100.00;97336.03;5123304;27;20023;-76
2022/05/29 10:24:21;;;;;;;4.90;2.05;;;;;;;11.41;100.00;97327.94;5109880;28;20035;-83
2022/05/29 10:26:50;;;;;;;3.30;2.10;;;;;;;11.40;100.00;97333.75;5113552;27;20039;-79
2022/05/29 10:29:18;;;;;;;3.28;1.80;;;;;;;11.40;100.00;97331.81;5120573;27;20028;-80
2022/05/29 10:31:48;;;;;;;3.00;1.90;;;;;;;11.34;100.00;97330.31;5112632;27;20038;-77
2022/05/29 10:34:32;;;;;;;4.47;2.10;;;;;;;11.26;100.00;97333.81;5128691;27;20065;-80
2022/05/29 10:36:58;;;;;;;2.70;1.90;;;;;;;11.35;100.00;97329.19;5125760;27;20020;-80
2022/05/29 10:39:25;;;;;;;3.58;1.80;;;;;;;11.40;100.00;97336.47;5136164;27;20035;-82
2022/05/29 10:41:52;;;;;;;4.70;2.25;;;;;;;11.40;100.00;97331.81;5131253;27;20027;-77
2022/05/29 10:44:44;;;;;;;3.60;1.83;;;;;;;11.29;100.00;97327.72;5127880;27;20023;-81
2022/05/29 10:47:15;;;;;;;4.78;2.35;;;;;;;11.48;100.00;97325.56;5140463;27;20041;-81
2022/05/29 10:50:23;;;;;;;2.42;1.88;;;;;;;11.52;100.00;97329.28;5140780;27;20037;-81
2022/05/29 10:53:12;;;;;;;3.03;1.92;;;;;;;11.45;100.00;97333.59;5139357;27;20047;-82
2022/05/29 10:56:03;;;;;;;6.07;3.53;;;;;;;11.49;100.00;97334.56;5142024;27;20031;-79
2022/05/29 10:58:59;;;;;;;2.53;1.88;;;;;;;11.43;100.00;97325.69;5104962;27;20064;-81
2022/05/29 11:04:48;;;;;;;4.55;2.22;;;;;;;11.39;100.00;97330.19;5141831;27;20116;-82
2022/05/29 11:07:34;;;;;;;5.20;2.10;;;;;;;11.40;100.00;97320.03;5122771;27;20069;-78
2022/05/29 11:10:02;;;;;;;4.70;2.28;;;;;;;11.29;100.00;97325.78;5138868;27;20039;-81
2022/05/29 11:12:47;;;;;;;3.22;2.00;;;;;;;11.32;100.00;97318.88;5139271;27;20027;-81
2022/05/29 11:15:31;;;;;;;3.53;2.20;;;;;;;11.45;100.00;97328.91;5137991;27;20023;-79
2022/05/29 11:18:20;;;;;;;6.57;2.10;;;;;;;11.49;100.00;97326.38;5138406;27;20019;-83
2022/05/29 11:20:57;;;;;;;4.00;2.20;;;;;;;11.29;100.00;97324.97;5139974;27;20027;-79
2022/05/29 11:24:00;;;;;;;2.72;1.95;;;;;;;11.45;100.00;97322.63;5141093;27;20029;-82
2022/05/29 11:26:38;;;;;;;2.72;2.03;;;;;;;11.21;100.00;97312.06;5139771;27;20027;-79
2022/05/29 11:29:28;;;;;;;4.28;2.30;;;;;;;11.29;100.00;97308.56;5123603;27;20023;-85
2022/05/29 11:32:28;;;;;;;4.38;2.38;;;;;;;11.18;100.00;97301.75;5141291;27;20076;-84
2022/05/29 11:35:02;;;;;;;5.35;2.05;;;;;;;11.27;100.00;97302.59;5090973;27;20039;-82
2022/05/29 11:37:52;;;;;;;7.15;2.20;;;;;;;11.33;100.00;97304.06;5141777;27;20113;-82
2022/05/29 11:40:29;;;;;;;3.20;2.10;;;;;;;11.18;100.00;97302.53;5140931;27;20027;-79
2022/05/29 11:43:38;;;;;;;4.00;2.90;;;;;;;11.24;100.00;97305.97;5136927;27;20184;-80
2022/05/29 11:52:40;;;;;;;4.13;2.22;;;;;;;11.15;100.00;97294.97;5142386;27;20079;-80
2022/05/29 11:55:13;;;;;;;7.15;2.03;;;;;;;11.22;100.00;97292.59;5143344;27;20023;-82
2022/05/29 11:57:51;;;;;;;2.53;1.83;;;;;;;11.21;100.00;97295.66;5150630;27;20034;-82
2022/05/29 12:00:25;;;;;;;6.30;2.30;;;;;;;11.20;100.00;97299.50;5145515;27;20471;-82
2022/05/29 12:03:00;;;;;;;2.75;1.90;;;;;;;11.26;100.00;97292.75;5139057;27;20035;-80
2022/05/29 12:05:37;;;;;;;2.27;1.70;;;;;;;11.34;100.00;97300.19;5142243;27;20102;-82
2022/05/29 12:08:18;;;;;;;2.63;1.80;;;;;;;11.35;100.00;97290.88;5141797;27;20125;-80
2022/05/29 12:11:16;;;;;;;4.20;2.38;;;;;;;11.28;100.00;97291.31;5141590;27;20023;-81
2022/05/29 12:13:57;;;;;;;4.40;2.08;;;;;;;11.37;100.00;97290.56;5100596;27;20476;-83
2022/05/29 12:16:28;;;;;;;3.45;2.00;;;;;;;11.30;100.00;97291.00;5143017;27;20070;-79
2022/05/29 12:18:56;;;;;;;2.65;1.92;;;;;;;11.32;100.00;97291.50;5122882;27;20030;-83